Impacts TAF Board INFO
FOR SITUATIONAL AWARENESS. NOT TO BE USED FOR FLIGHT PLANNING PURPOSES.
IDs:

KLGA - New York/La Guardia, NY, US

Issued at 1959 UTC 17 Dec 2017
Updated at 2332 UTC 17 Dec 2017
Potential Impact None Slight Moderate High
Time2251Z 18/00Z 18/01Z 18/02Z 18/03Z 18/04Z 18/05Z 18/06Z 18/07Z 18/08Z 18/09Z 18/10Z 18/11Z 18/12Z>>
Type OBS PRVL PRVL PRVL PRVL PRVL PRVL
  [TEMP]  
PRVL
  [TEMP]  
PRVL
  [TEMP]  
PRVL
  [TEMP]  
PRVL
  [TEMP]  
PRVL
  [TEMP]  
PRVL
  [TEMP]  
PRVL
VIS 10 >6 >6 >6 >6 >6 >6
  [6]  
>6
  [6]  
>6
  [6]  
>6
  [6]  
>6
  [6]  
>6
  [6]  
>6
  [6]  
>6
CIG 250 150 150 80 80 80 20
  [12]  
20
  [12]  
20
  [12]  
15
  [12]  
15
  [12]  
15
  [12]  
15
  [12]  
15
Cover BKN OVC OVC OVC OVC OVC BKN
  [BKN]  
BKN
  [BKN]  
BKN
  [BKN]  
BKN
  [BKN]  
BKN
  [BKN]  
BKN
  [BKN]  
BKN
  [BKN]  
BKN
FltCat VFR VFR VFR VFR VFR VFR MVFR
  [MVFR]  
MVFR
  [MVFR]  
MVFR
  [MVFR]  
MVFR
  [MVFR]  
MVFR
  [MVFR]  
MVFR
  [MVFR]  
MVFR
  [MVFR]  
MVFR
WX -- -- -- -- -- -- --
  [-SN -PL -RA]  
--
  [-SN -PL -RA]  
--
  [-SN -PL -RA]  
--
  [-RA]  
--
  [-RA]  
--
  [-RA]  
--
  [-RA]  
--
WDir 60 40 40 VRB VRB VRB VRB
[VRB]
VRB
[VRB]
VRB
[VRB]
VRB
[VRB]
VRB
[VRB]
VRB
[VRB]
VRB
[VRB]
VRB
WSpd 6 5 5 4 4 4 4
  [4]  
4
  [4]  
4
  [4]  
3
  [3]  
3
  [3]  
3
  [3]  
3
  [3]  
3
WGst -- -- -- -- -- -- --
  [--]  
--
  [--]  
--
  [--]  
--
  [--]  
--
  [--]  
--
  [--]  
--
  [--]  
--

Raw TAF
KLGA 171959Z 1720/1824 04005KT P6SM FEW045 OVC150
  FM180200 VRB04KT P6SM SCT025 OVC080
  FM180500 VRB04KT P6SM BKN020
  TEMPO 1805/1808 6SM -SNPLRA SCT008 BKN012
  FM180800 VRB03KT P6SM BKN015
  TEMPO 1808/1812 6SM -RA SCT008 BKN012
  FM181400 33006KT P6SM SCT020 BKN080
  FM181700 27007KT P6SM FEW020 SCT250


Raw METAR
KLGA 172251Z 06006KT 10SM FEW130 BKN250 02/M04 A3025 RMK AO2 SLP243 T00221039 $
KLGA 172151Z 06006KT 10SM FEW050 SCT130 OVC250 02/M04 A3024 RMK AO2 SLP240 T00221039 $
KLGA 172051Z 06005KT 10SM FEW050 BKN130 OVC250 02/M04 A3024 RMK AO2 SLP240 T00221039 55006 $

METAR Board
Radar Display
Forecast Discussion

FOR SITUATIONAL AWARENESS. NOT TO BE USED FOR FLIGHT PLANNING PURPOSES.